Flight Track Log - Related Links

Times and Time Zones

All times are in EDT time to prevent confusion due to time zone crossing. See the KAP927 flight status page for this flight to view local times or setup timezone preferences in your user account.

Time Position Orientation Groundspeed Altitude Reporting Facility
EDT Latitude Longitude Course Direction KTS MPH feet Rate Location/Type
Wed 02:59:30 PM 42.7253 -73.8392 242° Southwest 119 137 1,400  Level Boston Center
Wed 03:00:30 PM 42.7564 -73.8567 338° Northwest 129 148 1,900 496 Climbing Boston Center
Wed 03:01:31 PM 42.7853 -73.8828 326° Northwest 127 146 2,400 516 Climbing Boston Center
Wed 03:02:38 PM 42.8203 -73.9119 329° Northwest 126 145 3,000 520 Climbing Boston Center
Wed 03:03:38 PM 42.8511 -73.9356 331° Northwest 130 150 3,500 522 Climbing Boston Center
Wed 03:04:33 PM 42.8800 -73.9589 329° Northwest 130 150 4,000 466 Climbing Boston Center
Wed 03:05:34 PM 42.9089 -73.9850 326° Northwest 130 150 4,400 446 Climbing Boston Center
Wed 03:06:34 PM 42.9419 -74.0114 330° Northwest 130 150 4,900 472 Climbing Boston Center
Wed 03:07:41 PM 42.9747 -74.0406 327° Northwest 131 151 5,400 492 Climbing Boston Center
Wed 03:08:36 PM 43.0036 -74.0583 336° Northwest 131 151 5,900 522 Climbing Boston Center
Wed 03:09:36 PM 43.0347 -74.0847 328° Northwest 132 152 6,400 496 Climbing Boston Center
Wed 03:10:37 PM 43.0656 -74.1111 328° Northwest 127 146 6,900 469 Climbing Boston Center
Wed 03:11:44 PM 43.1025 -74.1433 328° Northwest 133 153 7,400 411 Climbing Boston Center
Wed 03:13:32 PM 43.1581 -74.1850 331° Northwest 137 158 8,100 393 Climbing Boston Center
Wed 03:14:32 PM 43.1869 -74.2086 329° Northwest 137 158 8,500 400 Climbing Boston Center
Wed 03:15:32 PM 43.2242 -74.2381 330° Northwest 137 158 8,900 400 Climbing Boston Center
Wed 03:16:32 PM 43.2528 -74.2617 329° Northwest 137 158 9,300 400 Climbing Boston Center
Wed 03:17:32 PM 43.2897 -74.2942 327° Northwest 137 158 9,700 350 Climbing Boston Center
Wed 03:18:32 PM 43.3208 -74.3181 331° Northwest 137 158 10,000 150 Climbing Boston Center
Wed 03:19:32 PM 43.3617 -74.3564 326° Northwest 143 165 10,000  Level Boston Center
Wed 03:20:32 PM 43.4028 -74.3892 330° Northwest 160 184 10,000 -50 Level Boston Center
Wed 03:21:32 PM 43.4439 -74.4219 330° Northwest 165 190 9,900 -50 Descending Boston Center
Wed 03:22:32 PM 43.4872 -74.4547 331° Northwest 165 190 9,900 50 Level Boston Center
Wed 03:23:32 PM 43.5200 -74.4786 332° Northwest 165 190 10,000 50 Climbing Boston Center
Wed 03:24:32 PM 43.5653 -74.5203 326° Northwest 165 190 10,000  Level Boston Center
Wed 03:25:32 PM 43.6064 -74.5506 332° Northwest 165 190 10,000  Level Boston Center
Wed 03:26:32 PM 43.6411 -74.5833 326° Northwest 165 190 10,000  Level Boston Center
Wed 03:27:32 PM 43.6781 -74.6133 330° Northwest 160 184 10,000  Level Boston Center
Wed 03:28:32 PM 43.7108 -74.6403 329° Northwest 160 184 10,000  Level Boston Center
Wed 03:29:32 PM 43.7458 -74.6733 326° Northwest 160 184 10,000  Level Boston Center
Wed 03:30:32 PM 43.7828 -74.7033 330° Northwest 160 184 10,000  Level Boston Center
Wed 03:31:32 PM 43.8194 -74.7336 329° Northwest 160 184 10,000  Level Boston Center
Wed 03:32:32 PM 43.8564 -74.7636 330° Northwest 160 184 10,000  Level Boston Center
Wed 03:33:32 PM 43.9000 -74.7797 345° North 160 184 10,000  Level Boston Center
Wed 03:34:32 PM 43.9392 -74.8014 338° Northwest 153 176 10,000  Level Boston Center
Wed 03:35:32 PM 43.9783 -74.8203 341° North 148 170 10,000 -300 Level Boston Center
Wed 03:36:32 PM 44.0236 -74.8394 343° North 154 177 9,400 -450 Descending Boston Center
Wed 03:37:32 PM 44.0711 -74.8617 341° North 164 189 9,100 -500 Descending Boston Center
Wed 03:38:32 PM 44.1208 -74.8839 342° North 175 201 8,400 -700 Descending Boston Center
Wed 03:39:32 PM 44.1703 -74.9061 342° North 180 207 7,700 -650 Descending Boston Center
Wed 03:40:32 PM 44.2197 -74.9342 338° Northwest 185 213 7,100 -500 Descending Boston Center
Wed 03:41:32 PM 44.2672 -74.9594 339° North 185 213 6,700 -450 Descending Boston Center
Wed 03:42:32 PM 44.3167 -74.9819 342° North 185 213 6,200 -450 Descending Boston Center
Wed 03:43:32 PM 44.3661 -75.0044 342° North 185 213 5,800 -500 Descending Boston Center
Wed 03:44:32 PM 44.4156 -75.0269 342° North 185 213 5,200 -550 Descending Boston Center
Wed 03:45:32 PM 44.4653 -75.0436 347° North 185 213 4,700 -400 Descending Boston Center
Wed 03:46:32 PM 44.5147 -75.0689 340° North 185 213 4,400 -200 Descending Boston Center
Wed 03:47:32 PM 44.5581 -75.0856 345° North 174 200 4,300 -400 Descending Boston Center
Wed 03:48:32 PM 44.6056 -75.1081 341° North 169 194 3,600 -500 Descending Boston Center
Wed 03:49:44 PM 44.6547 -75.1367 338° Northwest 169 194 3,200 -182 Descending Boston Center
Wed 03:50:44 PM 44.7103 -75.1656 340° North 169 194 3,200  Level Boston Center
Wed 03:51:44 PM 44.7578 -75.1911 339° North 169 194 3,200  Level Boston Center
Wed 03:52:44 PM 44.7947 -75.2103 340° North 169 194 3,200  Level Boston Center
Wed 03:54:00 PM 44.7586 -75.2611 225° Southwest  Level FlightAware Approximate
Wed 04:01:00 PM 44.6667 -75.4500 254° West  Level FlightAware Approximate
Wed 04:02:00 PM 44.6819 -75.4655 254° West  Level Estimated
Wed 04:03:00 PM 44.6819 -75.4655 254° West  Level Estimated
Wed 04:04:00 PM 44.6819 -75.4655 254° West  Level Estimated
Wed 04:05:00 PM 44.6819 -75.4655 254° West  Level Estimated
Wed 04:06:00 PM 44.6819 -75.4655 254° West  Level Estimated
Wed 04:07:00 PM 44.6819 -75.4655 254° West  Level Estimated
Wed 04:08:00 PM 44.6819 -75.4655 254° West  Level Estimated
Wed 04:09:00 PM 44.6819 -75.4655 254° West  Level Estimated
Wed 04:10:00 PM 44.6819 -75.4655 254° West  Level Estimated
Wed 04:11:00 PM 44.6819 -75.4655 254° West  Level Estimated
Wed 04:12:00 PM 44.6819 -75.4655 254° West  Level Estimated
Wed 04:13:00 PM 44.6819 -75.4655 254° West  Level Estimated
Wed 04:14:00 PM 44.6819 -75.4655 254° West  Level Estimated

Login

Don't have an account? Register now (free) for customized features, flight alerts, and more!